»·PEaware :: RNGR805 KGNP-KNGP

RNGR805 :: KGNP-KNGP

FLIGHT INFORMATION

Flight Status: Arrived
Operator: Unknown
More flights by this operator :: More flights under this callsign
Pilot: USN Avenger (31125)
Aircraft: BEECH AIRCRAFT T-6A TEXAN
(TEX2)
More flights by this aircraft type
Origin: KGNP
Destination: KNGP Corpus Christi NAS/Truax
United States
More flights between these airports :: More routes between these airports
Route: TO KGNT FOR TOUCH-AND-GOS FOLLOWED BY RECOVERY TO
File this flight plan on PilotEdge
Remarks:
Altitude:
(Current/Filed)
14,500ft
Speed:
(Current/Filed)
240kts
Departed: 21-Nov-23 12:10 PM
Arrived: 21-Nov-23 01:13 PM
Distance/Time
Traveled:
Not Available
Distance/Time
To Go:
Arrived

Flight Plot

Page will automatically refresh every two minutes.

Flight plan parsing failed; only flown route is shown


Map Options




Map Legend


Flown Route
Filed Route
Departure Airport
Arrival Airport
Navaid (VOR, NDB)
Fix

Horizontal Profiles

Position Reports

Time Latitude Longitude Heading Altitude Ground
Speed
21-Nov-23 11:32 27.607648 -97.301652 236 10ft 140kts
21-Nov-23 11:33 27.698553 -97.284289 158 22ft 0kts
21-Nov-23 11:34 27.698386 -97.284253 185 22ft 0kts
21-Nov-23 11:35 27.698351 -97.284245 158 22ft 0kts
21-Nov-23 11:36 27.698350 -97.284245 158 22ft 0kts
21-Nov-23 11:37 27.698350 -97.284245 158 22ft 0kts
21-Nov-23 11:38 27.698350 -97.284245 158 22ft 0kts
21-Nov-23 11:39 27.698350 -97.284245 158 22ft 0kts
21-Nov-23 11:40 27.698350 -97.284245 158 22ft 0kts
21-Nov-23 11:41 27.698350 -97.284245 158 22ft 0kts
21-Nov-23 11:42 27.698350 -97.284245 158 22ft 0kts
21-Nov-23 11:43 27.698350 -97.284245 158 22ft 0kts
21-Nov-23 11:44 27.698350 -97.284245 158 22ft 0kts
21-Nov-23 11:45 27.698350 -97.284245 158 22ft 0kts
21-Nov-23 11:46 27.698350 -97.284245 158 22ft 0kts
21-Nov-23 11:46 27.698350 -97.284245 158 22ft 0kts
21-Nov-23 11:48 27.698350 -97.284245 158 22ft 0kts
21-Nov-23 11:49 27.698350 -97.284245 158 22ft 0kts
21-Nov-23 11:50 27.698350 -97.284245 158 22ft 0kts
21-Nov-23 11:50 27.698350 -97.284245 158 22ft 0kts
21-Nov-23 11:51 27.698350 -97.284245 158 22ft 0kts
21-Nov-23 11:53 27.698350 -97.284245 158 22ft 0kts
21-Nov-23 11:54 27.698350 -97.284245 158 22ft 0kts
21-Nov-23 11:56 27.698552 -97.284289 158 22ft 0kts
21-Nov-23 11:58 27.698347 -97.284242 163 22ft 0kts
21-Nov-23 11:58 27.698347 -97.284242 163 22ft 0kts
21-Nov-23 11:59 27.698347 -97.284242 163 22ft 0kts
21-Nov-23 12:00 27.698346 -97.284242 163 22ft 0kts
21-Nov-23 12:01 27.698345 -97.284242 163 22ft 0kts
21-Nov-23 12:02 27.698343 -97.284241 163 22ft 0kts
21-Nov-23 12:03 27.698342 -97.284241 163 22ft 0kts
21-Nov-23 12:04 27.698137 -97.284512 244 22ft 9kts
21-Nov-23 12:05 27.699463 -97.286442 228 22ft 10kts
21-Nov-23 12:06 27.697086 -97.289181 224 22ft 12kts
21-Nov-23 12:07 27.695717 -97.290962 225 22ft 0kts
21-Nov-23 12:08 27.694909 -97.291384 134 22ft 0kts
21-Nov-23 12:09 27.679899 -97.273067 128 481ft 167kts
21-Nov-23 12:10 27.652120 -97.224168 46 1345ft 175kts
21-Nov-23 12:11 27.702845 -97.227114 351 3517ft 194kts
21-Nov-23 12:12 27.758603 -97.234265 352 5395ft 210kts
21-Nov-23 12:13 27.823397 -97.246183 351 5531ft 252kts
21-Nov-23 12:14 27.892043 -97.254557 5 5738ft 244kts
21-Nov-23 12:15 27.948929 -97.238306 9 8789ft 197kts
21-Nov-23 12:16 28.005458 -97.232430 14 10887ft 211kts
21-Nov-23 12:17 28.061145 -97.230199 359 13202ft 204kts
21-Nov-23 12:18 28.116095 -97.248644 324 14583ft 236kts
21-Nov-23 12:19 28.167039 -97.308305 309 14527ft 277kts
21-Nov-23 12:20 28.210962 -97.382465 297 14335ft 283kts
21-Nov-23 12:21 28.241875 -97.463381 294 14419ft 280kts
21-Nov-23 12:22 28.274877 -97.544185 297 14252ft 284kts
21-Nov-23 12:23 28.310292 -97.622695 297 14304ft 282kts
21-Nov-23 12:24 28.348530 -97.702270 298 12882ft 276kts
21-Nov-23 12:25 28.356735 -97.727709 186 11952ft 243kts
21-Nov-23 12:26 28.373496 -97.790206 7 5568ft 279kts
21-Nov-23 12:27 28.440757 -97.787603 343 2949ft 234kts
21-Nov-23 12:28 28.504149 -97.800351 354 1682ft 230kts
21-Nov-23 12:29 28.569638 -97.808549 352 1502ft 236kts
21-Nov-23 12:30 28.633467 -97.794478 29 1346ft 242kts
21-Nov-23 12:31 28.679971 -97.743364 57 1659ft 239kts
21-Nov-23 12:32 28.686821 -97.669710 110 1236ft 249kts
21-Nov-23 12:33 28.642350 -97.623853 176 1508ft 234kts
21-Nov-23 12:34 28.577861 -97.617500 204 1502ft 215kts
21-Nov-23 12:35 28.610405 -97.633019 355 1176ft 134kts
21-Nov-23 12:36 28.624250 -97.623054 165 409ft 128kts
21-Nov-23 12:37 28.590891 -97.617239 187 763ft 123kts
21-Nov-23 12:38 28.607370 -97.632664 355 1130ft 136kts
21-Nov-23 12:39 28.624229 -97.623176 162 464ft 117kts
21-Nov-23 12:40 28.591869 -97.616694 175 725ft 127kts
21-Nov-23 12:41 28.596346 -97.632452 352 1132ft 120kts
21-Nov-23 12:42 28.629294 -97.633584 72 992ft 118kts
21-Nov-23 12:43 28.602643 -97.618462 169 554ft 131kts
21-Nov-23 12:44 28.588729 -97.629320 343 1142ft 132kts
21-Nov-23 12:45 28.622456 -97.637175 352 1079ft 116kts
21-Nov-23 12:46 28.618319 -97.621638 170 331ft 95kts
21-Nov-23 12:47 28.587289 -97.615190 172 970ft 129kts
21-Nov-23 12:48 28.603438 -97.631541 351 1139ft 128kts
21-Nov-23 12:49 28.626533 -97.624603 147 572ft 124kts
21-Nov-23 12:50 28.592572 -97.616362 169 664ft 143kts
21-Nov-23 12:51 28.579563 -97.625992 345 1091ft 127kts
21-Nov-23 12:52 28.589843 -97.629119 344 1054ft 134kts
21-Nov-23 12:53 28.589843 -97.629119 344 1054ft 134kts
21-Nov-23 12:54 28.589843 -97.629119 344 1054ft 134kts
21-Nov-23 12:55 28.589843 -97.629119 344 1054ft 134kts
21-Nov-23 12:56 28.589843 -97.629119 344 1054ft 134kts
21-Nov-23 12:57 28.589843 -97.629119 344 1054ft 134kts
21-Nov-23 12:58 28.589843 -97.629119 344 1054ft 134kts
21-Nov-23 12:59 28.589843 -97.629119 344 1054ft 134kts
21-Nov-23 13:00 28.589843 -97.629119 344 1054ft 134kts
21-Nov-23 13:01 28.589843 -97.629119 344 1054ft 134kts
21-Nov-23 13:02 28.589843 -97.629119 344 1054ft 134kts
21-Nov-23 13:03 28.589843 -97.629119 344 1054ft 134kts
21-Nov-23 13:04 28.589843 -97.629119 344 1054ft 134kts
21-Nov-23 13:05 28.589843 -97.629119 344 1054ft 134kts
21-Nov-23 13:06 28.589843 -97.629119 344 1054ft 134kts
21-Nov-23 13:07 28.589843 -97.629119 344 1054ft 134kts
21-Nov-23 13:08 28.589843 -97.629119 344 1054ft 134kts
21-Nov-23 13:12 27.698387 -97.284232 166 22ft 0kts
21-Nov-23 13:13 27.698385 -97.284232 166 22ft 0kts
21-Nov-23 13:14 27.698384 -97.284232 166 22ft 0kts
21-Nov-23 13:15 28.373708 -97.681169 166 1300ft 244kts
21-Nov-23 13:16 28.367437 -97.699880 319 3006ft 140kts
21-Nov-23 13:17 28.414799 -97.704296 359 3688ft 200kts
21-Nov-23 13:18 28.471915 -97.704075 358 4129ft 206kts
21-Nov-23 13:19 28.530715 -97.719068 339 3803ft 253kts
21-Nov-23 13:20 28.602581 -97.713587 22 1737ft 247kts
21-Nov-23 13:21 28.655599 -97.684384 49 1427ft 202kts
21-Nov-23 13:22 28.648546 -97.631435 158 1473ft 196kts
21-Nov-23 13:23 28.592548 -97.619099 171 1423ft 204kts
21-Nov-23 13:24 28.565889 -97.661035 277 1488ft 194kts
21-Nov-23 13:25 28.613226 -97.694557 354 1599ft 232kts
21-Nov-23 13:26 28.669975 -97.679070 61 1434ft 212kts
21-Nov-23 13:27 28.648230 -97.629571 168 1326ft 207kts

Navigation Log

Ident Type
Flight plan parsing failed, navigation log unavailable